sensor_id;sensor_type;location;lat;lon;timestamp;P1;durP1;ratioP1;P2;durP2;ratioP2
44664;SDS011;30382;48.802;9.388;2022-08-01T00:01:45;2.77;;;2.60;;
44664;SDS011;30382;48.802;9.388;2022-08-01T00:04:29;2.40;;;2.20;;
44664;SDS011;30382;48.802;9.388;2022-08-01T00:07:13;3.10;;;2.73;;
44664;SDS011;30382;48.802;9.388;2022-08-01T00:09:58;2.47;;;2.20;;
44664;SDS011;30382;48.802;9.388;2022-08-01T00:12:43;2.33;;;2.13;;
44664;SDS011;30382;48.802;9.388;2022-08-01T00:15:27;2.93;;;2.73;;
44664;SDS011;30382;48.802;9.388;2022-08-01T00:18:11;3.30;;;3.03;;
44664;SDS011;30382;48.802;9.388;2022-08-01T00:20:56;4.17;;;3.83;;
44664;SDS011;30382;48.802;9.388;2022-08-01T00:23:40;3.07;;;2.77;;
44664;SDS011;30382;48.802;9.388;2022-08-01T00:26:24;2.63;;;2.40;;
44664;SDS011;30382;48.802;9.388;2022-08-01T00:29:08;3.60;;;3.27;;
44664;SDS011;30382;48.802;9.388;2022-08-01T00:31:53;3.13;;;2.50;;
44664;SDS011;30382;48.802;9.388;2022-08-01T00:34:37;2.50;;;2.30;;
44664;SDS011;30382;48.802;9.388;2022-08-01T00:37:22;3.13;;;2.83;;
44664;SDS011;30382;48.802;9.388;2022-08-01T00:40:06;2.40;;;2.20;;
44664;SDS011;30382;48.802;9.388;2022-08-01T00:42:51;2.90;;;2.70;;
44664;SDS011;30382;48.802;9.388;2022-08-01T00:45:35;2.87;;;2.57;;
44664;SDS011;30382;48.802;9.388;2022-08-01T00:48:19;3.47;;;3.17;;
44664;SDS011;30382;48.802;9.388;2022-08-01T00:51:04;2.90;;;2.70;;
44664;SDS011;30382;48.802;9.388;2022-08-01T00:53:49;3.10;;;2.80;;
44664;SDS011;30382;48.802;9.388;2022-08-01T00:56:33;2.70;;;2.50;;
44664;SDS011;30382;48.802;9.388;2022-08-01T00:59:18;4.70;;;2.80;;
44664;SDS011;30382;48.802;9.388;2022-08-01T01:02:04;2.80;;;2.60;;
44664;SDS011;30382;48.802;9.388;2022-08-01T01:04:48;5.03;;;2.63;;
44664;SDS011;30382;48.802;9.388;2022-08-01T01:13:22;2.93;;;2.73;;
44664;SDS011;30382;48.802;9.388;2022-08-01T01:16:12;4.13;;;3.00;;
44664;SDS011;30382;48.802;9.388;2022-08-01T01:18:58;3.00;;;2.80;;
44664;SDS011;30382;48.802;9.388;2022-08-01T01:22:27;2.80;;;2.60;;
44664;SDS011;30382;48.802;9.388;2022-08-01T01:27:41;5.07;;;2.90;;
44664;SDS011;30382;48.802;9.388;2022-08-01T01:30:28;2.70;;;2.50;;
44664;SDS011;30382;48.802;9.388;2022-08-01T01:33:12;2.90;;;2.70;;
44664;SDS011;30382;48.802;9.388;2022-08-01T01:36:00;3.13;;;2.93;;
44664;SDS011;30382;48.802;9.388;2022-08-01T01:38:47;2.40;;;2.20;;
44664;SDS011;30382;48.802;9.388;2022-08-01T01:41:32;3.83;;;3.03;;
44664;SDS011;30382;48.802;9.388;2022-08-01T01:44:16;3.23;;;2.93;;
44664;SDS011;30382;48.802;9.388;2022-08-01T01:47:01;2.90;;;2.70;;
44664;SDS011;30382;48.802;9.388;2022-08-01T01:49:46;2.80;;;2.60;;
44664;SDS011;30382;48.802;9.388;2022-08-01T01:52:31;3.03;;;2.83;;
44664;SDS011;30382;48.802;9.388;2022-08-01T01:55:16;3.03;;;2.83;;
44664;SDS011;30382;48.802;9.388;2022-08-01T01:58:02;3.10;;;2.90;;
44664;SDS011;30382;48.802;9.388;2022-08-01T02:00:48;3.30;;;3.10;;
44664;SDS011;30382;48.802;9.388;2022-08-01T02:03:33;4.03;;;3.43;;
44664;SDS011;30382;48.802;9.388;2022-08-01T02:06:20;4.83;;;3.20;;
44664;SDS011;30382;48.802;9.388;2022-08-01T02:09:05;4.10;;;3.70;;
44664;SDS011;30382;48.802;9.388;2022-08-01T02:11:51;4.53;;;3.07;;
44664;SDS011;30382;48.802;9.388;2022-08-01T02:14:37;4.07;;;3.13;;
44664;SDS011;30382;48.802;9.388;2022-08-01T02:17:24;3.80;;;3.50;;
44664;SDS011;30382;48.802;9.388;2022-08-01T02:20:09;4.20;;;3.43;;
44664;SDS011;30382;48.802;9.388;2022-08-01T02:22:55;5.50;;;3.60;;
44664;SDS011;30382;48.802;9.388;2022-08-01T02:25:46;4.40;;;3.17;;
44664;SDS011;30382;48.802;9.388;2022-08-01T02:28:36;3.43;;;3.13;;
44664;SDS011;30382;48.802;9.388;2022-08-01T02:31:22;3.30;;;3.10;;
44664;SDS011;30382;48.802;9.388;2022-08-01T02:34:07;3.50;;;3.27;;
44664;SDS011;30382;48.802;9.388;2022-08-01T02:36:53;4.03;;;3.63;;
44664;SDS011;30382;48.802;9.388;2022-08-01T02:39:39;3.70;;;3.40;;
44664;SDS011;30382;48.802;9.388;2022-08-01T02:42:24;4.40;;;3.37;;
44664;SDS011;30382;48.802;9.388;2022-08-01T02:45:10;3.60;;;3.00;;
44664;SDS011;30382;48.802;9.388;2022-08-01T02:48:00;4.03;;;3.73;;
44664;SDS011;30382;48.802;9.388;2022-08-01T02:50:48;6.53;;;3.03;;
44664;SDS011;30382;48.802;9.388;2022-08-01T02:53:33;3.60;;;3.30;;
44664;SDS011;30382;48.802;9.388;2022-08-01T02:56:21;3.43;;;3.23;;
44664;SDS011;30382;48.802;9.388;2022-08-01T02:59:10;3.63;;;3.30;;
44664;SDS011;30382;48.802;9.388;2022-08-01T03:01:57;4.30;;;3.43;;
44664;SDS011;30382;48.802;9.388;2022-08-01T03:04:42;4.53;;;3.40;;
44664;SDS011;30382;48.802;9.388;2022-08-01T03:07:27;5.07;;;3.40;;
44664;SDS011;30382;48.802;9.388;2022-08-01T03:10:14;4.10;;;3.80;;
44664;SDS011;30382;48.802;9.388;2022-08-01T03:13:00;3.40;;;3.20;;
44664;SDS011;30382;48.802;9.388;2022-08-01T03:15:45;3.50;;;3.17;;
44664;SDS011;30382;48.802;9.388;2022-08-01T03:18:29;5.67;;;3.40;;
44664;SDS011;30382;48.802;9.388;2022-08-01T03:21:14;3.37;;;3.10;;
44664;SDS011;30382;48.802;9.388;2022-08-01T03:23:59;3.40;;;3.20;;
44664;SDS011;30382;48.802;9.388;2022-08-01T03:26:43;3.80;;;3.50;;
44664;SDS011;30382;48.802;9.388;2022-08-01T03:29:27;4.10;;;3.67;;
44664;SDS011;30382;48.802;9.388;2022-08-01T03:32:13;4.20;;;3.90;;
44664;SDS011;30382;48.802;9.388;2022-08-01T03:34:59;4.10;;;3.80;;
44664;SDS011;30382;48.802;9.388;2022-08-01T03:43:19;3.70;;;3.47;;
44664;SDS011;30382;48.802;9.388;2022-08-01T03:46:04;5.63;;;3.70;;
44664;SDS011;30382;48.802;9.388;2022-08-01T03:48:52;4.47;;;4.10;;
44664;SDS011;30382;48.802;9.388;2022-08-01T03:51:39;7.30;;;3.77;;
44664;SDS011;30382;48.802;9.388;2022-08-01T03:54:24;5.03;;;3.57;;
44664;SDS011;30382;48.802;9.388;2022-08-01T03:57:10;5.40;;;3.30;;
44664;SDS011;30382;48.802;9.388;2022-08-01T03:59:58;4.30;;;4.00;;
44664;SDS011;30382;48.802;9.388;2022-08-01T04:02:43;4.60;;;4.17;;
44664;SDS011;30382;48.802;9.388;2022-08-01T04:05:27;3.90;;;3.20;;
44664;SDS011;30382;48.802;9.388;2022-08-01T04:08:11;3.70;;;3.40;;
44664;SDS011;30382;48.802;9.388;2022-08-01T04:10:55;4.40;;;3.57;;
44664;SDS011;30382;48.802;9.388;2022-08-01T04:13:40;4.37;;;4.00;;
44664;SDS011;30382;48.802;9.388;2022-08-01T04:16:24;4.00;;;3.70;;
44664;SDS011;30382;48.802;9.388;2022-08-01T04:19:08;3.67;;;3.17;;
44664;SDS011;30382;48.802;9.388;2022-08-01T04:21:53;4.23;;;3.90;;
44664;SDS011;30382;48.802;9.388;2022-08-01T04:24:37;6.30;;;3.90;;
44664;SDS011;30382;48.802;9.388;2022-08-01T04:27:24;9.07;;;5.60;;
44664;SDS011;30382;48.802;9.388;2022-08-01T04:30:13;5.73;;;4.20;;
44664;SDS011;30382;48.802;9.388;2022-08-01T04:32:59;4.07;;;3.67;;
44664;SDS011;30382;48.802;9.388;2022-08-01T04:35:45;5.37;;;3.90;;
44664;SDS011;30382;48.802;9.388;2022-08-01T04:38:30;3.43;;;3.13;;
44664;SDS011;30382;48.802;9.388;2022-08-01T04:41:15;3.97;;;3.57;;
44664;SDS011;30382;48.802;9.388;2022-08-01T04:44:01;4.53;;;4.00;;
44664;SDS011;30382;48.802;9.388;2022-08-01T04:46:46;4.73;;;4.33;;
44664;SDS011;30382;48.802;9.388;2022-08-01T04:49:32;5.03;;;3.60;;
44664;SDS011;30382;48.802;9.388;2022-08-01T04:52:17;3.40;;;3.20;;
44664;SDS011;30382;48.802;9.388;2022-08-01T04:55:05;3.97;;;3.67;;
44664;SDS011;30382;48.802;9.388;2022-08-01T04:57:52;5.17;;;3.43;;
44664;SDS011;30382;48.802;9.388;2022-08-01T05:00:37;3.37;;;3.07;;
44664;SDS011;30382;48.802;9.388;2022-08-01T05:03:21;3.80;;;3.30;;
44664;SDS011;30382;48.802;9.388;2022-08-01T05:06:06;3.87;;;3.57;;
44664;SDS011;30382;48.802;9.388;2022-08-01T05:08:50;3.93;;;3.60;;
44664;SDS011;30382;48.802;9.388;2022-08-01T05:11:34;4.90;;;4.43;;
44664;SDS011;30382;48.802;9.388;2022-08-01T05:14:18;4.33;;;4.00;;
44664;SDS011;30382;48.802;9.388;2022-08-01T05:17:03;4.77;;;3.50;;
44664;SDS011;30382;48.802;9.388;2022-08-01T05:19:48;4.03;;;3.63;;
44664;SDS011;30382;48.802;9.388;2022-08-01T05:22:32;6.00;;;5.20;;
44664;SDS011;30382;48.802;9.388;2022-08-01T05:25:16;5.00;;;4.17;;
44664;SDS011;30382;48.802;9.388;2022-08-01T05:28:01;4.07;;;3.50;;
44664;SDS011;30382;48.802;9.388;2022-08-01T05:30:46;4.07;;;3.67;;
44664;SDS011;30382;48.802;9.388;2022-08-01T05:33:30;4.30;;;3.90;;
44664;SDS011;30382;48.802;9.388;2022-08-01T05:36:14;4.23;;;3.80;;
44664;SDS011;30382;48.802;9.388;2022-08-01T05:38:59;6.43;;;4.43;;
44664;SDS011;30382;48.802;9.388;2022-08-01T05:41:44;4.20;;;3.80;;
44664;SDS011;30382;48.802;9.388;2022-08-01T05:44:28;4.13;;;3.83;;
44664;SDS011;30382;48.802;9.388;2022-08-01T05:47:13;4.13;;;3.73;;
44664;SDS011;30382;48.802;9.388;2022-08-01T05:49:57;4.47;;;3.97;;
44664;SDS011;30382;48.802;9.388;2022-08-01T05:52:42;4.87;;;3.90;;
44664;SDS011;30382;48.802;9.388;2022-08-01T05:55:26;4.53;;;4.13;;
44664;SDS011;30382;48.802;9.388;2022-08-01T05:58:10;3.93;;;3.63;;
44664;SDS011;30382;48.802;9.388;2022-08-01T06:00:54;6.30;;;4.20;;
44664;SDS011;30382;48.802;9.388;2022-08-01T06:03:39;5.90;;;4.60;;
44664;SDS011;30382;48.802;9.388;2022-08-01T06:06:23;8.93;;;4.33;;
44664;SDS011;30382;48.802;9.388;2022-08-01T06:09:07;4.40;;;4.00;;
44664;SDS011;30382;48.802;9.388;2022-08-01T06:11:52;5.27;;;3.60;;
44664;SDS011;30382;48.802;9.388;2022-08-01T06:14:36;4.40;;;3.50;;
44664;SDS011;30382;48.802;9.388;2022-08-01T06:17:20;4.10;;;3.70;;
44664;SDS011;30382;48.802;9.388;2022-08-01T06:20:05;4.43;;;3.30;;
44664;SDS011;30382;48.802;9.388;2022-08-01T06:22:50;4.03;;;3.50;;
44664;SDS011;30382;48.802;9.388;2022-08-01T06:25:35;4.90;;;3.60;;
44664;SDS011;30382;48.802;9.388;2022-08-01T06:28:20;4.40;;;4.00;;
44664;SDS011;30382;48.802;9.388;2022-08-01T06:31:04;3.30;;;3.00;;
44664;SDS011;30382;48.802;9.388;2022-08-01T06:33:48;4.93;;;3.70;;
44664;SDS011;30382;48.802;9.388;2022-08-01T06:36:33;3.77;;;3.43;;
44664;SDS011;30382;48.802;9.388;2022-08-01T06:39:17;3.23;;;3.00;;
44664;SDS011;30382;48.802;9.388;2022-08-01T06:42:01;4.10;;;3.70;;
44664;SDS011;30382;48.802;9.388;2022-08-01T06:44:46;4.47;;;3.37;;
44664;SDS011;30382;48.802;9.388;2022-08-01T06:47:30;3.43;;;3.10;;
44664;SDS011;30382;48.802;9.388;2022-08-01T06:50:14;3.40;;;3.20;;
44664;SDS011;30382;48.802;9.388;2022-08-01T06:52:59;4.77;;;2.70;;
44664;SDS011;30382;48.802;9.388;2022-08-01T06:55:43;3.00;;;2.70;;
44664;SDS011;30382;48.802;9.388;2022-08-01T06:58:27;2.70;;;2.37;;
44664;SDS011;30382;48.802;9.388;2022-08-01T07:01:12;2.83;;;2.63;;
44664;SDS011;30382;48.802;9.388;2022-08-01T07:03:57;2.33;;;2.20;;
44664;SDS011;30382;48.802;9.388;2022-08-01T07:06:41;2.40;;;2.20;;
44664;SDS011;30382;48.802;9.388;2022-08-01T07:09:25;2.10;;;1.90;;
44664;SDS011;30382;48.802;9.388;2022-08-01T07:12:10;2.97;;;1.70;;
44664;SDS011;30382;48.802;9.388;2022-08-01T07:14:55;2.20;;;2.00;;
44664;SDS011;30382;48.802;9.388;2022-08-01T07:17:40;1.27;;;1.10;;
44664;SDS011;30382;48.802;9.388;2022-08-01T07:20:24;2.00;;;1.53;;
44664;SDS011;30382;48.802;9.388;2022-08-01T07:23:09;1.67;;;1.57;;
44664;SDS011;30382;48.802;9.388;2022-08-01T07:25:53;4.90;;;1.93;;
44664;SDS011;30382;48.802;9.388;2022-08-01T07:28:38;2.00;;;1.60;;
44664;SDS011;30382;48.802;9.388;2022-08-01T07:31:22;2.30;;;2.10;;
44664;SDS011;30382;48.802;9.388;2022-08-01T07:34:07;2.33;;;1.77;;
44664;SDS011;30382;48.802;9.388;2022-08-01T07:36:52;2.57;;;1.80;;
44664;SDS011;30382;48.802;9.388;2022-08-01T07:39:36;2.10;;;1.87;;
44664;SDS011;30382;48.802;9.388;2022-08-01T07:42:21;3.93;;;2.27;;
44664;SDS011;30382;48.802;9.388;2022-08-01T07:45:05;2.10;;;1.87;;
44664;SDS011;30382;48.802;9.388;2022-08-01T07:47:49;1.97;;;1.83;;
44664;SDS011;30382;48.802;9.388;2022-08-01T07:50:33;2.63;;;2.03;;
44664;SDS011;30382;48.802;9.388;2022-08-01T07:53:18;1.83;;;1.73;;
44664;SDS011;30382;48.802;9.388;2022-08-01T07:56:02;2.40;;;1.73;;
44664;SDS011;30382;48.802;9.388;2022-08-01T07:58:48;2.87;;;1.77;;
44664;SDS011;30382;48.802;9.388;2022-08-01T08:01:33;1.90;;;1.80;;
44664;SDS011;30382;48.802;9.388;2022-08-01T08:04:17;3.43;;;1.77;;
44664;SDS011;30382;48.802;9.388;2022-08-01T08:07:02;4.60;;;2.00;;
44664;SDS011;30382;48.802;9.388;2022-08-01T08:09:46;2.53;;;1.73;;
44664;SDS011;30382;48.802;9.388;2022-08-01T08:12:31;2.10;;;1.83;;
44664;SDS011;30382;48.802;9.388;2022-08-01T08:15:15;2.77;;;2.17;;
44664;SDS011;30382;48.802;9.388;2022-08-01T08:18:00;3.90;;;1.67;;
44664;SDS011;30382;48.802;9.388;2022-08-01T08:20:44;2.03;;;1.93;;
44664;SDS011;30382;48.802;9.388;2022-08-01T08:23:29;2.93;;;2.73;;
44664;SDS011;30382;48.802;9.388;2022-08-01T08:26:32;1.53;;;1.43;;
44664;SDS011;30382;48.802;9.388;2022-08-01T08:29:16;1.83;;;1.73;;
44664;SDS011;30382;48.802;9.388;2022-08-01T08:32:00;2.03;;;1.93;;
44664;SDS011;30382;48.802;9.388;2022-08-01T08:34:45;1.87;;;1.77;;
44664;SDS011;30382;48.802;9.388;2022-08-01T08:37:30;2.30;;;2.10;;
44664;SDS011;30382;48.802;9.388;2022-08-01T08:40:14;2.33;;;2.10;;
44664;SDS011;30382;48.802;9.388;2022-08-01T08:42:59;2.17;;;1.97;;
44664;SDS011;30382;48.802;9.388;2022-08-01T08:45:44;1.80;;;1.70;;
44664;SDS011;30382;48.802;9.388;2022-08-01T08:48:29;2.63;;;2.43;;
44664;SDS011;30382;48.802;9.388;2022-08-01T08:51:13;2.07;;;1.93;;
44664;SDS011;30382;48.802;9.388;2022-08-01T08:54:01;4.00;;;2.10;;
44664;SDS011;30382;48.802;9.388;2022-08-01T08:56:47;2.40;;;1.80;;
44664;SDS011;30382;48.802;9.388;2022-08-01T08:59:33;5.90;;;2.80;;
44664;SDS011;30382;48.802;9.388;2022-08-01T09:02:17;2.23;;;2.00;;
44664;SDS011;30382;48.802;9.388;2022-08-01T09:05:01;3.03;;;2.40;;
44664;SDS011;30382;48.802;9.388;2022-08-01T09:07:45;3.00;;;1.77;;
44664;SDS011;30382;48.802;9.388;2022-08-01T09:10:30;2.30;;;2.10;;
44664;SDS011;30382;48.802;9.388;2022-08-01T09:13:14;2.73;;;2.50;;
44664;SDS011;30382;48.802;9.388;2022-08-01T09:15:58;2.23;;;2.03;;
44664;SDS011;30382;48.802;9.388;2022-08-01T09:18:43;2.37;;;2.20;;
44664;SDS011;30382;48.802;9.388;2022-08-01T09:21:29;2.50;;;2.03;;
44664;SDS011;30382;48.802;9.388;2022-08-01T09:24:14;2.43;;;2.10;;
44664;SDS011;30382;48.802;9.388;2022-08-01T09:26:59;3.13;;;1.87;;
44664;SDS011;30382;48.802;9.388;2022-08-01T09:29:44;4.30;;;2.10;;
44664;SDS011;30382;48.802;9.388;2022-08-01T09:32:29;4.67;;;2.60;;
44664;SDS011;30382;48.802;9.388;2022-08-01T09:35:23;2.40;;;2.20;;
44664;SDS011;30382;48.802;9.388;2022-08-01T09:38:15;4.37;;;2.80;;
44664;SDS011;30382;48.802;9.388;2022-08-01T09:41:01;2.80;;;2.60;;
44664;SDS011;30382;48.802;9.388;2022-08-01T09:43:49;2.40;;;2.20;;
44664;SDS011;30382;48.802;9.388;2022-08-01T09:46:34;2.23;;;2.03;;
44664;SDS011;30382;48.802;9.388;2022-08-01T09:49:28;5.33;;;3.10;;
44664;SDS011;30382;48.802;9.388;2022-08-01T09:52:14;4.83;;;2.90;;
44664;SDS011;30382;48.802;9.388;2022-08-01T09:54:59;2.90;;;2.70;;
44664;SDS011;30382;48.802;9.388;2022-08-01T09:57:54;3.77;;;3.33;;
44664;SDS011;30382;48.802;9.388;2022-08-01T10:00:39;3.27;;;3.07;;
44664;SDS011;30382;48.802;9.388;2022-08-01T10:03:24;8.80;;;3.47;;
44664;SDS011;30382;48.802;9.388;2022-08-01T10:06:21;3.00;;;2.80;;
44664;SDS011;30382;48.802;9.388;2022-08-01T10:09:05;3.47;;;3.17;;
44664;SDS011;30382;48.802;9.388;2022-08-01T10:11:50;4.27;;;3.30;;
44664;SDS011;30382;48.802;9.388;2022-08-01T10:14:34;5.27;;;3.20;;
44664;SDS011;30382;48.802;9.388;2022-08-01T10:17:19;4.00;;;3.70;;
44664;SDS011;30382;48.802;9.388;2022-08-01T10:20:04;4.37;;;3.80;;
44664;SDS011;30382;48.802;9.388;2022-08-01T10:22:49;3.53;;;3.23;;
44664;SDS011;30382;48.802;9.388;2022-08-01T10:25:34;4.90;;;4.37;;
44664;SDS011;30382;48.802;9.388;2022-08-01T10:28:20;4.47;;;4.07;;
44664;SDS011;30382;48.802;9.388;2022-08-01T10:31:06;5.30;;;4.90;;
44664;SDS011;30382;48.802;9.388;2022-08-01T10:33:51;4.97;;;4.47;;
44664;SDS011;30382;48.802;9.388;2022-08-01T10:36:37;4.07;;;3.77;;
44664;SDS011;30382;48.802;9.388;2022-08-01T10:39:22;4.60;;;4.30;;
44664;SDS011;30382;48.802;9.388;2022-08-01T10:42:08;4.30;;;3.90;;
44664;SDS011;30382;48.802;9.388;2022-08-01T10:44:53;4.07;;;3.80;;
44664;SDS011;30382;48.802;9.388;2022-08-01T10:47:40;4.20;;;3.90;;
44664;SDS011;30382;48.802;9.388;2022-08-01T10:53:21;3.70;;;3.40;;
44664;SDS011;30382;48.802;9.388;2022-08-01T10:56:06;4.00;;;3.60;;
44664;SDS011;30382;48.802;9.388;2022-08-01T10:59:00;3.37;;;3.10;;
44664;SDS011;30382;48.802;9.388;2022-08-01T11:01:44;3.60;;;3.40;;
44664;SDS011;30382;48.802;9.388;2022-08-01T11:07:35;4.43;;;2.83;;
44664;SDS011;30382;48.802;9.388;2022-08-01T11:10:38;3.80;;;2.80;;
44664;SDS011;30382;48.802;9.388;2022-08-01T11:14:05;3.10;;;2.77;;
44664;SDS011;30382;48.802;9.388;2022-08-01T11:16:34;3.60;;;3.40;;
44664;SDS011;30382;48.802;9.388;2022-08-01T11:19:19;4.43;;;4.13;;
44664;SDS011;30382;48.802;9.388;2022-08-01T11:22:04;5.17;;;3.77;;
44664;SDS011;30382;48.802;9.388;2022-08-01T11:27:35;3.50;;;3.20;;
44664;SDS011;30382;48.802;9.388;2022-08-01T11:33:04;3.57;;;3.37;;
44664;SDS011;30382;48.802;9.388;2022-08-01T11:41:44;3.57;;;2.40;;
44664;SDS011;30382;48.802;9.388;2022-08-01T11:44:28;3.60;;;3.30;;
44664;SDS011;30382;48.802;9.388;2022-08-01T11:47:43;3.70;;;3.40;;
44664;SDS011;30382;48.802;9.388;2022-08-01T11:53:14;3.23;;;2.80;;
44664;SDS011;30382;48.802;9.388;2022-08-01T11:55:59;3.03;;;2.83;;
44664;SDS011;30382;48.802;9.388;2022-08-01T11:58:43;3.27;;;2.97;;
44664;SDS011;30382;48.802;9.388;2022-08-01T12:01:28;2.60;;;2.40;;
44664;SDS011;30382;48.802;9.388;2022-08-01T12:04:12;2.30;;;2.20;;
44664;SDS011;30382;48.802;9.388;2022-08-01T12:06:56;2.80;;;2.70;;
44664;SDS011;30382;48.802;9.388;2022-08-01T12:09:59;3.50;;;2.80;;
44664;SDS011;30382;48.802;9.388;2022-08-01T12:15:32;2.60;;;2.40;;
44664;SDS011;30382;48.802;9.388;2022-08-01T12:18:17;2.90;;;2.80;;
44664;SDS011;30382;48.802;9.388;2022-08-01T12:21:02;2.87;;;2.67;;
44664;SDS011;30382;48.802;9.388;2022-08-01T12:24:01;3.70;;;2.80;;
44664;SDS011;30382;48.802;9.388;2022-08-01T12:26:46;3.53;;;3.23;;
44664;SDS011;30382;48.802;9.388;2022-08-01T12:29:35;2.83;;;2.63;;
44664;SDS011;30382;48.802;9.388;2022-08-01T12:32:29;2.50;;;2.30;;
44664;SDS011;30382;48.802;9.388;2022-08-01T12:35:15;2.57;;;2.47;;
44664;SDS011;30382;48.802;9.388;2022-08-01T12:38:01;3.17;;;2.87;;
44664;SDS011;30382;48.802;9.388;2022-08-01T12:40:46;2.50;;;2.40;;
44664;SDS011;30382;48.802;9.388;2022-08-01T12:43:32;2.77;;;2.50;;
44664;SDS011;30382;48.802;9.388;2022-08-01T12:46:18;3.30;;;3.00;;
44664;SDS011;30382;48.802;9.388;2022-08-01T12:49:02;2.77;;;2.67;;
44664;SDS011;30382;48.802;9.388;2022-08-01T12:51:47;2.60;;;2.50;;
44664;SDS011;30382;48.802;9.388;2022-08-01T12:54:59;2.50;;;2.30;;
44664;SDS011;30382;48.802;9.388;2022-08-01T12:57:44;3.83;;;2.60;;
44664;SDS011;30382;48.802;9.388;2022-08-01T13:00:32;3.47;;;2.40;;
44664;SDS011;30382;48.802;9.388;2022-08-01T13:03:18;2.53;;;2.33;;
44664;SDS011;30382;48.802;9.388;2022-08-01T13:06:09;3.20;;;2.60;;
44664;SDS011;30382;48.802;9.388;2022-08-01T13:08:54;3.83;;;2.17;;
44664;SDS011;30382;48.802;9.388;2022-08-01T13:11:38;3.30;;;2.63;;
44664;SDS011;30382;48.802;9.388;2022-08-01T13:14:28;4.60;;;2.60;;
44664;SDS011;30382;48.802;9.388;2022-08-01T13:17:29;2.20;;;2.10;;
44664;SDS011;30382;48.802;9.388;2022-08-01T13:20:23;2.47;;;2.37;;
44664;SDS011;30382;48.802;9.388;2022-08-01T13:23:12;2.73;;;2.53;;
44664;SDS011;30382;48.802;9.388;2022-08-01T13:25:57;2.53;;;2.33;;
44664;SDS011;30382;48.802;9.388;2022-08-01T13:28:41;11.13;;;10.43;;
44664;SDS011;30382;48.802;9.388;2022-08-01T13:31:31;2.83;;;2.47;;
44664;SDS011;30382;48.802;9.388;2022-08-01T13:34:16;2.30;;;2.20;;
44664;SDS011;30382;48.802;9.388;2022-08-01T13:37:00;2.72;;;1.98;;
44664;SDS011;30382;48.802;9.388;2022-08-01T13:39:51;3.03;;;1.83;;
44664;SDS011;30382;48.802;9.388;2022-08-01T13:42:36;2.10;;;2.00;;
44664;SDS011;30382;48.802;9.388;2022-08-01T13:45:21;2.35;;;2.20;;
44664;SDS011;30382;48.802;9.388;2022-08-01T13:48:05;2.28;;;2.17;;
44664;SDS011;30382;48.802;9.388;2022-08-01T13:50:49;2.28;;;2.10;;
44664;SDS011;30382;48.802;9.388;2022-08-01T13:53:34;2.75;;;1.88;;
44664;SDS011;30382;48.802;9.388;2022-08-01T13:56:19;2.35;;;2.13;;
44664;SDS011;30382;48.802;9.388;2022-08-01T13:59:03;2.17;;;2.03;;
44664;SDS011;30382;48.802;9.388;2022-08-01T14:01:48;4.70;;;2.25;;
44664;SDS011;30382;48.802;9.388;2022-08-01T14:04:32;1.92;;;1.83;;
44664;SDS011;30382;48.802;9.388;2022-08-01T14:07:16;2.17;;;2.05;;
44664;SDS011;30382;48.802;9.388;2022-08-01T14:10:01;1.92;;;1.83;;
44664;SDS011;30382;48.802;9.388;2022-08-01T14:12:48;2.65;;;2.28;;
44664;SDS011;30382;48.802;9.388;2022-08-01T14:15:33;1.90;;;1.80;;
44664;SDS011;30382;48.802;9.388;2022-08-01T14:18:17;4.82;;;2.00;;
44664;SDS011;30382;48.802;9.388;2022-08-01T14:21:02;2.20;;;1.95;;
44664;SDS011;30382;48.802;9.388;2022-08-01T14:23:46;2.30;;;2.20;;
44664;SDS011;30382;48.802;9.388;2022-08-01T14:26:30;2.33;;;2.23;;
44664;SDS011;30382;48.802;9.388;2022-08-01T14:29:14;1.80;;;1.70;;
44664;SDS011;30382;48.802;9.388;2022-08-01T14:31:59;2.60;;;2.40;;
44664;SDS011;30382;48.802;9.388;2022-08-01T14:34:43;2.10;;;2.00;;
44664;SDS011;30382;48.802;9.388;2022-08-01T14:37:27;2.10;;;1.90;;
44664;SDS011;30382;48.802;9.388;2022-08-01T14:40:13;2.20;;;1.73;;
44664;SDS011;30382;48.802;9.388;2022-08-01T14:42:57;4.30;;;2.57;;
44664;SDS011;30382;48.802;9.388;2022-08-01T14:45:42;1.80;;;1.70;;
44664;SDS011;30382;48.802;9.388;2022-08-01T14:48:26;3.73;;;2.23;;
44664;SDS011;30382;48.802;9.388;2022-08-01T14:51:10;2.10;;;2.00;;
44664;SDS011;30382;48.802;9.388;2022-08-01T14:53:55;2.27;;;2.17;;
44664;SDS011;30382;48.802;9.388;2022-08-01T14:56:39;3.90;;;2.30;;
44664;SDS011;30382;48.802;9.388;2022-08-01T14:59:24;1.90;;;1.80;;
44664;SDS011;30382;48.802;9.388;2022-08-01T15:02:08;1.97;;;1.87;;
44664;SDS011;30382;48.802;9.388;2022-08-01T15:04:54;2.30;;;2.10;;
44664;SDS011;30382;48.802;9.388;2022-08-01T15:07:38;1.87;;;1.77;;
44664;SDS011;30382;48.802;9.388;2022-08-01T15:10:23;3.70;;;2.57;;
44664;SDS011;30382;48.802;9.388;2022-08-01T15:13:07;2.17;;;2.07;;
44664;SDS011;30382;48.802;9.388;2022-08-01T15:15:52;2.00;;;1.90;;
44664;SDS011;30382;48.802;9.388;2022-08-01T15:18:36;2.13;;;2.03;;
44664;SDS011;30382;48.802;9.388;2022-08-01T15:21:26;2.20;;;1.90;;
44664;SDS011;30382;48.802;9.388;2022-08-01T15:24:14;2.17;;;1.97;;
44664;SDS011;30382;48.802;9.388;2022-08-01T15:26:58;2.23;;;2.10;;
44664;SDS011;30382;48.802;9.388;2022-08-01T15:29:42;2.10;;;2.00;;
44664;SDS011;30382;48.802;9.388;2022-08-01T15:32:26;2.13;;;1.93;;
44664;SDS011;30382;48.802;9.388;2022-08-01T15:35:11;2.60;;;2.40;;
44664;SDS011;30382;48.802;9.388;2022-08-01T15:37:55;2.60;;;2.40;;
44664;SDS011;30382;48.802;9.388;2022-08-01T15:40:40;3.80;;;2.17;;
44664;SDS011;30382;48.802;9.388;2022-08-01T15:43:24;2.10;;;1.90;;
44664;SDS011;30382;48.802;9.388;2022-08-01T15:46:09;2.30;;;2.10;;
44664;SDS011;30382;48.802;9.388;2022-08-01T15:48:54;2.90;;;2.23;;
44664;SDS011;30382;48.802;9.388;2022-08-01T15:51:38;2.60;;;2.23;;
44664;SDS011;30382;48.802;9.388;2022-08-01T15:54:22;2.83;;;2.63;;
44664;SDS011;30382;48.802;9.388;2022-08-01T15:57:07;1.90;;;1.80;;
44664;SDS011;30382;48.802;9.388;2022-08-01T15:59:52;2.10;;;1.83;;
44664;SDS011;30382;48.802;9.388;2022-08-01T16:02:36;2.63;;;2.17;;
44664;SDS011;30382;48.802;9.388;2022-08-01T16:05:20;2.57;;;1.97;;
44664;SDS011;30382;48.802;9.388;2022-08-01T16:08:05;2.13;;;1.83;;
44664;SDS011;30382;48.802;9.388;2022-08-01T16:10:49;2.57;;;2.40;;
44664;SDS011;30382;48.802;9.388;2022-08-01T16:13:33;1.63;;;1.53;;
44664;SDS011;30382;48.802;9.388;2022-08-01T16:16:18;2.20;;;2.00;;
44664;SDS011;30382;48.802;9.388;2022-08-01T16:19:02;5.93;;;2.03;;
44664;SDS011;30382;48.802;9.388;2022-08-01T16:21:48;1.80;;;1.70;;
44664;SDS011;30382;48.802;9.388;2022-08-01T16:24:32;2.03;;;1.63;;
44664;SDS011;30382;48.802;9.388;2022-08-01T16:27:19;2.20;;;2.07;;
44664;SDS011;30382;48.802;9.388;2022-08-01T16:30:05;2.23;;;1.80;;
44664;SDS011;30382;48.802;9.388;2022-08-01T16:32:49;2.53;;;1.87;;
44664;SDS011;30382;48.802;9.388;2022-08-01T16:35:33;2.00;;;1.90;;
44664;SDS011;30382;48.802;9.388;2022-08-01T16:38:17;1.83;;;1.50;;
44664;SDS011;30382;48.802;9.388;2022-08-01T16:41:03;3.00;;;1.60;;
44664;SDS011;30382;48.802;9.388;2022-08-01T16:43:48;1.60;;;1.50;;
44664;SDS011;30382;48.802;9.388;2022-08-01T16:46:32;1.70;;;1.60;;
44664;SDS011;30382;48.802;9.388;2022-08-01T16:49:17;2.17;;;2.00;;
44664;SDS011;30382;48.802;9.388;2022-08-01T16:52:02;1.83;;;1.03;;
44664;SDS011;30382;48.802;9.388;2022-08-01T16:54:46;2.60;;;1.57;;
44664;SDS011;30382;48.802;9.388;2022-08-01T16:57:31;1.50;;;1.40;;
44664;SDS011;30382;48.802;9.388;2022-08-01T17:00:19;1.60;;;1.50;;
44664;SDS011;30382;48.802;9.388;2022-08-01T17:03:04;1.60;;;1.33;;
44664;SDS011;30382;48.802;9.388;2022-08-01T17:05:49;1.50;;;1.40;;
44664;SDS011;30382;48.802;9.388;2022-08-01T17:08:33;1.50;;;1.50;;
44664;SDS011;30382;48.802;9.388;2022-08-01T17:11:18;1.70;;;1.60;;
44664;SDS011;30382;48.802;9.388;2022-08-01T17:14:02;2.50;;;1.43;;
44664;SDS011;30382;48.802;9.388;2022-08-01T17:16:47;1.43;;;1.13;;